Time;durP1;ratioP1;P1;durP2;ratioP2;P2;SDS_P1;SDS_P2;PMS_P1;PMS_P2;Temp;Humidity;BMP_temperature;BMP_pressure;BME280_temperature;BME280_humidity;BME280_pressure;Samples;Min_cycle;Max_cycle;Signal;HPM_P1;HPM_P2
2021/03/23 00:01:50;;;;;;;94.03;45.40;;;;;;;-0.51;75.25;98657.56;127979;1115;22803;-79
2021/03/23 00:04:16;;;;;;;93.77;42.43;;;;;;;-0.54;74.87;98644.55;128009;1113;22940;-79
2021/03/23 00:06:43;;;;;;;89.10;43.60;;;;;;;-0.58;74.83;98644.87;128008;1115;24261;-79
2021/03/23 00:09:09;;;;;;;96.60;43.60;;;;;;;-0.55;74.38;98643.69;127984;1113;22884;-79
2021/03/23 00:11:41;;;;;;;87.67;37.27;;;;;;;-0.52;74.60;98651.38;128017;1114;22779;-79
2021/03/23 00:14:11;;;;;;;93.50;44.20;;;;;;;-0.54;74.67;98640.02;128031;1114;22852;-79
2021/03/23 00:16:41;;;;;;;96.10;40.50;;;;;;;-0.53;75.52;98648.88;128029;1114;22964;-79
2021/03/23 00:19:09;;;;;;;96.67;43.50;;;;;;;-0.52;75.08;98640.68;128034;1114;22852;-79
2021/03/23 00:21:36;;;;;;;88.53;42.40;;;;;;;-0.51;76.04;98650.39;128021;1114;23349;-79
2021/03/23 00:24:04;;;;;;;94.67;45.23;;;;;;;-0.52;74.92;98640.68;128010;1113;22823;-79
2021/03/23 00:26:31;;;;;;;84.30;40.07;;;;;;;-0.55;74.88;98641.02;128034;1114;22814;-79
2021/03/23 00:28:58;;;;;;;93.17;46.03;;;;;;;-0.52;76.15;98642.53;128025;1114;22851;-79
2021/03/23 00:31:29;;;;;;;94.07;43.80;;;;;;;-0.53;75.82;98644.38;128050;1114;22989;-79
2021/03/23 00:34:01;;;;;;;100.87;46.60;;;;;;;-0.53;76.08;98647.05;127990;1113;22902;-79
2021/03/23 00:36:32;;;;;;;76.77;34.03;;;;;;;-0.53;76.17;98652.41;128005;1113;23306;-79
2021/03/23 00:39:01;;;;;;;106.80;46.57;;;;;;;-0.56;76.14;98650.06;127986;1114;22950;-79
2021/03/23 00:41:33;;;;;;;91.78;42.40;;;;;;;-0.56;75.77;98646.56;128017;1113;22881;-79
2021/03/23 00:44:02;;;;;;;109.30;47.27;;;;;;;-0.58;76.44;98647.55;128020;1113;22996;-79
2021/03/23 00:46:28;;;;;;;95.00;45.03;;;;;;;-0.56;75.85;98652.73;127996;1115;22799;-79
2021/03/23 00:48:55;;;;;;;119.53;51.03;;;;;;;-0.56;76.28;98646.56;128013;1113;23694;-79
2021/03/23 00:51:21;;;;;;;104.97;47.77;;;;;;;-0.55;76.99;98648.21;127986;1113;22802;-79
2021/03/23 00:53:48;;;;;;;107.07;49.43;;;;;;;-0.54;77.12;98644.55;128001;1114;22969;-79
2021/03/23 00:56:15;;;;;;;120.93;54.60;;;;;;;-0.54;77.56;98639.20;128015;1113;23594;-79
2021/03/23 00:58:41;;;;;;;119.33;55.97;;;;;;;-0.55;76.57;98646.36;128002;1114;22836;-79
2021/03/23 01:01:08;;;;;;;114.43;51.60;;;;;;;-0.58;76.98;98642.20;128014;1114;22835;-79
2021/03/23 01:03:35;;;;;;;116.70;54.53;;;;;;;-0.60;77.74;98636.19;128015;1113;22878;-79
2021/03/23 01:06:01;;;;;;;123.67;54.07;;;;;;;-0.61;77.55;98626.48;128029;1115;22854;-79
2021/03/23 01:08:28;;;;;;;121.87;56.53;;;;;;;-0.60;77.33;98630.02;128013;1114;22967;-79
2021/03/23 01:10:55;;;;;;;130.53;60.23;;;;;;;-0.58;77.06;98633.35;128048;1115;23141;-79
2021/03/23 01:13:21;;;;;;;118.73;55.43;;;;;;;-0.58;77.25;98628.00;128017;1114;22816;-79
2021/03/23 01:15:48;;;;;;;128.77;60.13;;;;;;;-0.58;78.32;98628.83;127982;1113;23431;-79
2021/03/23 01:18:15;;;;;;;101.97;45.87;;;;;;;-0.59;78.31;98628.99;128017;1113;22882;-79
2021/03/23 01:20:41;;;;;;;130.40;60.47;;;;;;;-0.60;78.19;98633.52;128037;1114;22808;-79
2021/03/23 01:23:09;;;;;;;134.27;57.03;;;;;;;-0.60;78.40;98630.84;128002;1114;22814;-79
2021/03/23 01:25:35;;;;;;;127.80;56.17;;;;;;;-0.61;78.85;98631.83;128009;1115;22894;-79
2021/03/23 01:28:02;;;;;;;122.40;53.67;;;;;;;-0.61;78.82;98636.36;127990;1114;22969;-79
2021/03/23 01:30:29;;;;;;;135.50;62.90;;;;;;;-0.63;78.78;98639.20;128015;1114;22831;-79
2021/03/23 01:32:56;;;;;;;136.53;59.40;;;;;;;-0.63;78.35;98633.02;127996;1114;22828;-79
2021/03/23 01:35:25;;;;;;;139.73;60.57;;;;;;;-0.63;77.86;98639.20;128013;1114;23383;-79
2021/03/23 01:37:52;;;;;;;110.52;49.23;;;;;;;-0.64;79.27;98636.69;128019;1113;22833;-79
2021/03/23 01:40:23;;;;;;;130.73;58.17;;;;;;;-0.64;78.96;98642.89;127970;1114;22847;-79
2021/03/23 01:42:56;;;;;;;139.70;60.60;;;;;;;-0.62;79.15;98632.86;127996;1115;22780;-79
2021/03/23 01:45:34;;;;;;;131.57;60.77;;;;;;;-0.61;79.26;98637.19;128013;1115;22872;-79
2021/03/23 01:48:05;;;;;;;123.00;59.85;;;;;;;-0.60;78.71;98627.34;128001;1114;22878;-79
2021/03/23 01:50:32;;;;;;;135.10;61.40;;;;;;;-0.58;79.07;98630.67;128021;1114;23406;-79
2021/03/23 01:53:36;;;;;;;139.00;62.47;;;;;;;-0.54;79.59;98623.97;128017;1113;22809;-79
2021/03/23 01:56:05;;;;;;;148.60;63.33;;;;;;;-0.55;78.59;98626.81;128000;1114;22763;-79
2021/03/23 01:58:36;;;;;;;135.28;59.42;;;;;;;-0.55;78.11;98624.97;128020;1113;22827;-79
2021/03/23 02:01:04;;;;;;;141.87;63.83;;;;;;;-0.53;78.81;98622.98;128025;1113;22794;-79
2021/03/23 02:03:31;;;;;;;136.83;61.50;;;;;;;-0.52;79.01;98621.13;128017;1114;22851;-79
2021/03/23 02:06:00;;;;;;;134.37;60.63;;;;;;;-0.50;79.25;98617.27;128027;1114;23434;-79
2021/03/23 02:08:27;;;;;;;136.95;59.20;;;;;;;-0.49;79.62;98618.12;128033;1115;22826;-79
2021/03/23 02:10:56;;;;;;;130.20;59.73;;;;;;;-0.50;78.78;98617.27;128007;1113;22829;-79
2021/03/23 02:13:24;;;;;;;119.47;53.33;;;;;;;-0.48;78.74;98622.45;128035;1114;22809;-79
2021/03/23 02:15:51;;;;;;;124.20;58.53;;;;;;;-0.50;78.72;98616.44;128015;1114;22808;-79
2021/03/23 02:18:20;;;;;;;133.73;58.03;;;;;;;-0.51;78.56;98615.62;128016;1114;23839;-79
2021/03/23 02:21:07;;;;;;;128.57;58.63;;;;;;;-0.51;79.16;98618.30;128005;1113;23373;-79
2021/03/23 02:23:39;;;;;;;123.90;55.37;;;;;;;-0.50;79.45;98614.59;128005;1114;22944;-79
2021/03/23 02:26:10;;;;;;;116.73;55.10;;;;;;;-0.50;79.00;98616.44;128004;1113;22882;-79
2021/03/23 02:28:51;;;;;;;116.60;53.73;;;;;;;-0.51;79.73;98615.62;127993;1115;22841;-79
2021/03/23 02:31:41;;;;;;;126.77;56.20;;;;;;;-0.51;78.77;98604.06;128014;1113;23391;-79
2021/03/23 02:34:11;;;;;;;113.57;54.00;;;;;;;-0.48;78.89;98607.26;127977;1114;23412;-79
2021/03/23 02:36:40;;;;;;;99.87;49.07;;;;;;;-0.46;79.68;98609.73;128033;1115;22805;-79
2021/03/23 02:39:08;;;;;;;115.57;57.10;;;;;;;-0.46;79.76;98613.27;128017;1115;23574;-79
2021/03/23 02:41:35;;;;;;;110.30;53.77;;;;;;;-0.42;79.19;98613.77;128001;1113;22826;-79
2021/03/23 02:44:03;;;;;;;109.23;48.73;;;;;;;-0.41;78.66;98615.41;128015;1114;22827;-79
2021/03/23 02:46:30;;;;;;;109.37;51.63;;;;;;;-0.44;78.91;98611.25;128005;1114;22862;-79
2021/03/23 02:48:57;;;;;;;113.03;51.17;;;;;;;-0.43;78.72;98612.91;128031;1113;22882;-79
2021/03/23 02:51:25;;;;;;;101.07;48.67;;;;;;;-0.43;79.06;98612.08;128007;1114;22829;-79
2021/03/23 02:53:51;;;;;;;110.57;53.10;;;;;;;-0.43;79.44;98602.20;128007;1114;22829;-79
2021/03/23 02:56:19;;;;;;;109.57;50.67;;;;;;;-0.42;79.41;98597.71;127964;1113;22997;-79
2021/03/23 02:58:45;;;;;;;102.57;48.27;;;;;;;-0.42;78.37;98603.06;128020;1114;22846;-79
2021/03/23 03:01:14;;;;;;;110.37;55.00;;;;;;;-0.44;78.73;98607.75;127996;1113;22793;-79
2021/03/23 03:03:41;;;;;;;101.57;46.77;;;;;;;-0.44;78.84;98600.55;127995;1114;22818;-79
2021/03/23 03:06:08;;;;;;;97.93;47.33;;;;;;;-0.45;78.75;98606.07;128051;1114;22806;-79
2021/03/23 03:08:35;;;;;;;104.97;50.90;;;;;;;-0.46;79.50;98602.57;128015;1114;23366;-79
2021/03/23 03:11:03;;;;;;;109.97;48.67;;;;;;;-0.47;78.93;98606.23;128007;1113;22882;-79
2021/03/23 03:13:30;;;;;;;102.57;48.63;;;;;;;-0.46;79.86;98610.59;128027;1114;22827;-79
2021/03/23 03:15:57;;;;;;;98.50;47.93;;;;;;;-0.48;79.61;98609.94;128001;1115;22853;-79
2021/03/23 03:18:25;;;;;;;91.43;43.27;;;;;;;-0.49;79.06;98618.95;128001;1113;22804;-79
2021/03/23 03:20:54;;;;;;;98.50;46.33;;;;;;;-0.47;79.49;98616.11;128017;1114;22853;-79
2021/03/23 03:23:21;;;;;;;93.33;47.43;;;;;;;-0.48;78.88;98614.42;128016;1114;22939;-79
2021/03/23 03:25:49;;;;;;;109.20;50.53;;;;;;;-0.46;78.76;98615.09;128040;1114;22827;-79
2021/03/23 03:28:17;;;;;;;102.13;47.67;;;;;;;-0.44;79.46;98621.13;127992;1115;23704;-79
2021/03/23 03:30:45;;;;;;;96.53;46.97;;;;;;;-0.42;79.45;98616.44;127996;1114;22858;-79
2021/03/23 03:33:15;;;;;;;100.37;49.20;;;;;;;-0.40;79.83;98614.42;128031;1114;23638;-79
2021/03/23 03:35:44;;;;;;;100.10;48.33;;;;;;;-0.39;78.66;98602.70;128024;1114;23739;-79
2021/03/23 03:38:12;;;;;;;83.97;44.25;;;;;;;-0.38;79.10;98609.73;128017;1113;23657;-79
2021/03/23 03:40:45;;;;;;;94.63;45.97;;;;;;;-0.39;79.84;98610.72;127993;1114;22788;-79
2021/03/23 03:43:14;;;;;;;101.10;48.80;;;;;;;-0.36;79.67;98604.21;128041;1114;22898;-79
2021/03/23 03:45:41;;;;;;;88.35;45.58;;;;;;;-0.36;79.83;98604.21;128030;1114;22844;-79
2021/03/23 03:48:08;;;;;;;91.27;43.83;;;;;;;-0.35;79.33;98603.19;128026;1114;23487;-79
2021/03/23 03:50:35;;;;;;;99.73;45.23;;;;;;;-0.36;78.59;98596.19;127982;1114;23246;-79
2021/03/23 03:53:03;;;;;;;94.03;45.63;;;;;;;-0.35;79.23;98597.84;127994;1114;22819;-79
2021/03/23 03:55:35;;;;;;;95.13;45.33;;;;;;;-0.36;79.05;98596.19;128002;1114;23567;-79
2021/03/23 03:58:03;;;;;;;100.57;45.43;;;;;;;-0.35;78.79;98601.37;128029;1113;22881;-79
2021/03/23 04:00:31;;;;;;;84.17;41.37;;;;;;;-0.34;79.47;98597.67;128027;1114;23637;-79
2021/03/23 04:03:00;;;;;;;80.83;37.83;;;;;;;-0.34;79.78;98603.02;128005;1114;22817;-79
2021/03/23 04:05:33;;;;;;;85.37;40.43;;;;;;;-0.34;79.20;98605.70;128030;1115;23473;-79
2021/03/23 04:08:01;;;;;;;69.00;34.87;;;;;;;-0.34;78.85;98599.52;128013;1113;23385;-79
2021/03/23 04:10:53;;;;;;;84.20;38.70;;;;;;;-0.35;78.14;98603.19;128036;1113;22937;-79
2021/03/23 04:13:21;;;;;;;78.60;37.83;;;;;;;-0.36;78.24;98598.86;128027;1114;23370;-79
2021/03/23 04:15:49;;;;;;;79.47;38.07;;;;;;;-0.37;79.51;98600.71;128003;1114;22846;-79
2021/03/23 04:18:19;;;;;;;74.95;37.08;;;;;;;-0.37;78.66;98606.06;128016;1114;22844;-79
2021/03/23 04:20:47;;;;;;;80.43;38.50;;;;;;;-0.38;77.96;98601.70;128025;1113;23009;-79
2021/03/23 04:23:33;;;;;;;64.07;30.03;;;;;;;-0.38;79.14;98607.05;128013;1115;22902;-79
2021/03/23 04:26:00;;;;;;;91.67;42.20;;;;;;;-0.37;78.72;98611.41;128014;1114;22929;-79
2021/03/23 04:28:26;;;;;;;79.97;37.70;;;;;;;-0.37;78.13;98608.73;128009;1115;22834;-79
2021/03/23 04:30:54;;;;;;;91.70;43.50;;;;;;;-0.36;78.60;98605.04;128020;1115;22835;-80
2021/03/23 04:33:23;;;;;;;75.80;38.50;;;;;;;-0.34;78.06;98611.05;128027;1114;22960;-79
2021/03/23 04:35:51;;;;;;;94.15;42.95;;;;;;;-0.32;79.24;98606.38;128017;1114;23367;-79
2021/03/23 04:38:26;;;;;;;86.23;40.83;;;;;;;-0.31;78.30;98613.39;128047;1114;22839;-79
2021/03/23 04:40:54;;;;;;;101.97;44.33;;;;;;;-0.29;79.06;98613.22;128031;1114;22905;-79
2021/03/23 04:43:49;;;;;;;80.73;35.77;;;;;;;-0.29;77.80;98616.72;128036;1114;22856;-79
2021/03/23 04:46:20;;;;;;;88.30;42.03;;;;;;;-0.31;78.18;98616.06;128014;1113;23516;-80
2021/03/23 04:48:47;;;;;;;78.80;38.27;;;;;;;-0.29;79.01;98614.05;128010;1114;22802;-80
2021/03/23 04:51:18;;;;;;;88.33;43.33;;;;;;;-0.28;78.52;98615.73;128050;1113;22816;-79
2021/03/23 04:53:45;;;;;;;87.40;39.83;;;;;;;-0.26;77.61;98616.39;128028;1115;22809;-80
2021/03/23 04:56:27;;;;;;;95.57;41.47;;;;;;;-0.25;78.10;98615.39;128042;1114;23289;-80
2021/03/23 04:58:54;;;;;;;94.10;43.90;;;;;;;-0.21;78.25;98623.91;128047;1115;22797;-80
2021/03/23 05:01:21;;;;;;;80.67;40.00;;;;;;;-0.22;78.83;98614.20;127994;1114;23385;-79
2021/03/23 05:03:55;;;;;;;83.10;39.97;;;;;;;-0.22;78.21;98609.67;128008;1114;23739;-80
2021/03/23 05:06:23;;;;;;;80.27;40.27;;;;;;;-0.20;77.44;98610.33;128030;1114;23359;-80
2021/03/23 05:08:50;;;;;;;78.07;38.43;;;;;;;-0.21;78.68;98606.00;128036;1114;22813;-80
2021/03/23 05:11:21;;;;;;;95.27;43.87;;;;;;;-0.20;78.87;98609.50;128007;1114;22817;-80
2021/03/23 05:13:47;;;;;;;83.63;41.00;;;;;;;-0.20;78.74;98615.69;128040;1114;22817;-80
2021/03/23 05:16:14;;;;;;;66.37;32.83;;;;;;;-0.18;78.81;98617.37;128028;1113;22870;-80
2021/03/23 05:18:41;;;;;;;92.03;44.97;;;;;;;-0.19;78.29;98616.54;128004;1114;22981;-80
2021/03/23 05:21:08;;;;;;;94.23;43.20;;;;;;;-0.16;78.85;98623.38;128027;1114;22859;-79
2021/03/23 05:23:35;;;;;;;81.80;39.87;;;;;;;-0.15;77.99;98612.50;128021;1113;22961;-80
2021/03/23 05:29:45;;;;;;;79.20;39.00;;;;;;;-0.11;77.67;98615.67;128023;1114;22933;-79
2021/03/23 05:32:12;;;;;;;89.00;42.90;;;;;;;-0.10;78.57;98623.53;128037;1113;22945;-79
2021/03/23 05:34:39;;;;;;;86.70;41.37;;;;;;;-0.08;77.43;98607.30;128031;1114;22863;-79
2021/03/23 05:37:06;;;;;;;77.87;41.23;;;;;;;-0.06;77.53;98615.98;128023;1114;22995;-79
2021/03/23 05:39:33;;;;;;;81.27;37.17;;;;;;;-0.04;77.53;98619.32;128039;1114;23518;-79
2021/03/23 05:42:12;;;;;;;84.87;40.93;;;;;;;-0.03;77.42;98624.51;128026;1114;22863;-79
2021/03/23 05:45:15;;;;;;;81.12;37.83;;;;;;;0.01;77.67;98625.00;128026;1114;22847;-79
2021/03/23 05:47:43;;;;;;;80.97;40.70;;;;;;;0.02;77.97;98620.47;128023;1113;23370;-79
2021/03/23 05:50:17;;;;;;;83.43;37.93;;;;;;;0.04;77.49;98629.19;128014;1115;23575;-79
2021/03/23 05:52:50;;;;;;;82.57;39.23;;;;;;;0.07;77.79;98631.49;128035;1114;23614;-79
2021/03/23 05:55:45;;;;;;;77.93;38.43;;;;;;;0.11;78.18;98630.98;128000;1115;22843;-79
2021/03/23 05:58:20;;;;;;;78.37;35.67;;;;;;;0.14;77.48;98635.14;128019;1114;22802;-80
2021/03/23 06:01:00;;;;;;;81.50;37.17;;;;;;;0.20;76.26;98647.03;128027;1115;22817;-79
2021/03/23 06:03:40;;;;;;;75.40;36.77;;;;;;;0.22;76.08;98642.33;128007;1115;22837;-79
2021/03/23 06:06:44;;;;;;;80.30;37.60;;;;;;;0.27;77.35;98645.32;128020;1113;22929;-79
2021/03/23 06:09:16;;;;;;;82.30;40.33;;;;;;;0.31;75.90;98647.45;128033;1113;22847;-79
2021/03/23 06:11:43;;;;;;;71.77;34.50;;;;;;;0.34;76.42;98646.30;128019;1113;22862;-79
2021/03/23 06:14:32;;;;;;;79.03;36.10;;;;;;;0.35;77.14;98646.13;128036;1114;22934;-79
2021/03/23 06:17:28;;;;;;;73.53;35.47;;;;;;;0.41;77.19;98644.58;128028;1114;22857;-79
2021/03/23 06:20:12;;;;;;;84.27;36.87;;;;;;;0.47;76.62;98646.55;128034;1113;22808;-80
2021/03/23 06:23:00;;;;;;;79.43;37.20;;;;;;;0.54;75.83;98646.69;128020;1114;22819;-80
2021/03/23 06:25:48;;;;;;;76.17;38.47;;;;;;;0.60;76.69;98650.50;127999;1114;22795;-80
2021/03/23 06:28:55;;;;;;;70.37;33.30;;;;;;;0.65;75.39;98643.59;127993;1114;23015;-80
2021/03/23 06:31:52;;;;;;;78.23;36.60;;;;;;;0.68;75.24;98637.06;128005;1113;23366;-80
2021/03/23 06:34:24;;;;;;;61.97;31.27;;;;;;;0.75;75.20;98644.20;128008;1113;22994;-80
2021/03/23 06:36:52;;;;;;;79.27;34.40;;;;;;;0.80;74.75;98651.73;128014;1113;22835;-80
2021/03/23 06:39:20;;;;;;;57.60;27.67;;;;;;;0.84;74.48;98644.98;128047;1114;22869;-80
2021/03/23 06:42:06;;;;;;;66.43;33.37;;;;;;;0.88;75.18;98657.02;128020;1113;22942;-80
2021/03/23 06:44:36;;;;;;;69.03;32.67;;;;;;;0.93;74.14;98649.27;128003;1113;22961;-81
2021/03/23 06:47:04;;;;;;;68.37;34.43;;;;;;;0.97;73.69;98643.56;128045;1113;23586;-80
2021/03/23 06:49:34;;;;;;;68.73;32.20;;;;;;;1.02;74.38;98644.69;128009;1113;23348;-80
2021/03/23 06:52:20;;;;;;;74.40;34.87;;;;;;;1.08;74.06;98649.34;127990;1114;23423;-80
2021/03/23 06:55:24;;;;;;;66.30;31.07;;;;;;;1.13;73.82;98644.28;128005;1113;22847;-81
2021/03/23 06:57:50;;;;;;;66.27;33.37;;;;;;;1.20;73.63;98640.87;127943;1114;22857;-80
2021/03/23 07:00:30;;;;;;;54.17;26.10;;;;;;;1.26;73.00;98646.36;128025;1114;22822;-80
2021/03/23 07:03:25;;;;;;;72.33;35.60;;;;;;;1.32;71.84;98647.47;128014;1113;23622;-80
2021/03/23 07:05:53;;;;;;;75.33;35.20;;;;;;;1.41;73.17;98637.50;127997;1114;22846;-80
2021/03/23 07:08:24;;;;;;;74.70;35.83;;;;;;;1.49;72.75;98646.31;128002;1114;22982;-79
2021/03/23 07:10:51;;;;;;;72.43;34.37;;;;;;;1.60;72.03;98646.89;128036;1115;22925;-79
2021/03/23 07:13:38;;;;;;;66.97;29.17;;;;;;;1.67;71.43;98632.55;128024;1114;23635;-79
2021/03/23 07:16:11;;;;;;;65.87;32.83;;;;;;;1.76;71.23;98641.36;128010;1114;22839;-79
2021/03/23 07:18:50;;;;;;;63.73;32.00;;;;;;;1.83;71.56;98644.97;127996;1114;22897;-79
2021/03/23 07:21:29;;;;;;;67.75;35.28;;;;;;;1.91;71.10;98649.41;128013;1114;23573;-79
2021/03/23 07:24:15;;;;;;;58.83;28.87;;;;;;;1.98;70.40;98650.33;128013;1114;23614;-79
2021/03/23 07:26:55;;;;;;;62.73;30.23;;;;;;;2.05;70.23;98651.29;128031;1114;22976;-79
2021/03/23 07:29:38;;;;;;;59.27;31.37;;;;;;;2.07;69.40;98649.25;128000;1114;22863;-79
2021/03/23 07:32:29;;;;;;;62.50;30.77;;;;;;;2.12;69.43;98654.05;128021;1114;22816;-79
2021/03/23 07:35:19;;;;;;;58.70;27.77;;;;;;;2.16;69.50;98646.44;128039;1114;22958;-79
2021/03/23 07:37:53;;;;;;;63.63;29.80;;;;;;;2.23;69.10;98645.53;128022;1113;23412;-79
2021/03/23 07:40:33;;;;;;;54.40;26.50;;;;;;;2.30;68.92;98645.59;128034;1113;22858;-79
2021/03/23 07:43:09;;;;;;;59.83;28.75;;;;;;;2.39;69.53;98641.80;128040;1114;22918;-79
2021/03/23 07:45:46;;;;;;;64.90;31.77;;;;;;;2.47;68.43;98648.92;128020;1113;22874;-78
2021/03/23 07:48:17;;;;;;;56.70;27.23;;;;;;;2.52;68.23;98651.05;128002;1113;22967;-78
2021/03/23 07:50:47;;;;;;;61.03;30.67;;;;;;;2.56;68.06;98657.71;127997;1114;22882;-78
2021/03/23 07:53:38;;;;;;;56.45;27.65;;;;;;;2.60;68.15;98665.22;127990;1113;23016;-78
2021/03/23 07:56:08;;;;;;;60.70;30.90;;;;;;;2.62;67.87;98657.80;128013;1114;22834;-78
2021/03/23 07:59:03;;;;;;;63.10;30.90;;;;;;;2.60;67.13;98645.55;128002;1113;23526;-78
2021/03/23 08:02:00;;;;;;;46.87;22.10;;;;;;;2.56;66.23;98646.95;128025;1113;22852;-78
2021/03/23 08:05:08;;;;;;;54.97;26.03;;;;;;;2.51;66.87;98644.82;128023;1113;23447;-78
2021/03/23 08:07:49;;;;;;;51.27;25.13;;;;;;;2.49;67.15;98648.73;128040;1115;22976;-78
2021/03/23 08:10:28;;;;;;;48.70;24.73;;;;;;;2.50;67.37;98645.01;128001;1115;22812;-78
2021/03/23 08:13:23;;;;;;;60.05;30.77;;;;;;;2.52;67.61;98651.87;128011;1113;22862;-78
2021/03/23 08:16:17;;;;;;;53.80;26.63;;;;;;;2.57;67.01;98643.26;128002;1113;22834;-78
2021/03/23 08:19:02;;;;;;;53.87;27.83;;;;;;;2.63;67.25;98651.37;127996;1114;22955;-78
2021/03/23 08:22:06;;;;;;;61.57;31.97;;;;;;;2.72;67.29;98652.09;128017;1113;23021;-78
2021/03/23 08:24:32;;;;;;;57.20;29.93;;;;;;;2.82;67.41;98643.74;128036;1114;22816;-78
2021/03/23 08:27:47;;;;;;;54.13;27.33;;;;;;;2.92;67.15;98646.10;128036;1114;22902;-78
2021/03/23 08:30:37;;;;;;;61.30;29.50;;;;;;;3.00;66.43;98640.61;128041;1114;22870;-78
2021/03/23 08:33:15;;;;;;;;;;;;;;;3.10;66.51;98635.75;128050;1113;22847;-78
2021/03/23 08:36:21;;;;;;;51.23;25.97;;;;;;;3.16;66.41;98639.52;128024;1114;21349;-78
2021/03/23 08:38:56;;;;;;;48.20;23.77;;;;;;;3.19;65.31;98652.59;128016;1115;22792;-78
2021/03/23 08:41:44;;;;;;;55.23;27.70;;;;;;;3.21;65.37;98645.16;128011;1113;22807;-78
2021/03/23 08:44:37;;;;;;;51.20;23.07;;;;;;;3.26;65.52;98639.17;128018;1113;22863;-78
2021/03/23 08:47:20;;;;;;;50.90;26.57;;;;;;;3.36;65.74;98645.07;128036;1113;22843;-78
2021/03/23 08:49:48;;;;;;;54.70;28.10;;;;;;;3.48;65.07;98645.39;128030;1113;22842;-78
2021/03/23 08:52:27;;;;;;;35.83;17.57;;;;;;;3.57;65.73;98646.91;128006;1115;22796;-78
2021/03/23 08:54:56;;;;;;;50.98;24.82;;;;;;;3.65;64.61;98646.77;128015;1114;23408;-78
2021/03/23 08:57:22;;;;;;;45.63;22.70;;;;;;;3.78;64.90;98656.80;128024;1113;22932;-78
2021/03/23 08:59:54;;;;;;;43.57;23.70;;;;;;;3.89;64.97;98650.03;128058;1115;22871;-78
2021/03/23 09:02:30;;;;;;;46.87;24.00;;;;;;;4.00;63.94;98649.47;128010;1115;22797;-78
2021/03/23 09:04:58;;;;;;;46.00;23.20;;;;;;;4.12;64.24;98645.19;128010;1114;22861;-78
2021/03/23 09:07:30;;;;;;;42.70;21.30;;;;;;;4.28;63.11;98649.42;128051;1115;22836;-77
2021/03/23 09:09:57;;;;;;;42.93;20.77;;;;;;;4.48;64.04;98651.38;128031;1113;22885;-75
2021/03/23 09:12:42;;;;;;;44.27;21.20;;;;;;;4.58;62.19;98649.15;128033;1114;23612;-76
2021/03/23 09:15:19;;;;;;;40.50;22.30;;;;;;;4.68;63.19;98641.52;128047;1114;22924;-76
2021/03/23 09:17:58;;;;;;;46.63;20.10;;;;;;;4.84;60.86;98655.69;128027;1113;23070;-76
2021/03/23 09:20:34;;;;;;;38.92;17.85;;;;;;;4.97;60.66;98646.78;128015;1114;22937;-76
2021/03/23 09:23:23;;;;;;;43.03;20.27;;;;;;;5.08;60.71;98647.02;127999;1114;22869;-76
2021/03/23 09:25:59;;;;;;;31.45;15.23;;;;;;;5.18;59.06;98643.91;128023;1114;22858;-76
2021/03/23 09:28:29;;;;;;;39.60;18.35;;;;;;;5.26;59.33;98648.30;128048;1115;22831;-76
2021/03/23 09:30:58;;;;;;;29.97;14.67;;;;;;;5.37;60.15;98631.47;128052;1113;22852;-76
2021/03/23 09:33:24;;;;;;;43.43;21.03;;;;;;;5.46;60.10;98632.92;128033;1115;22802;-76
2021/03/23 09:36:36;;;;;;;31.60;17.45;;;;;;;5.56;57.91;98627.12;127990;1114;22816;-76
2021/03/23 09:39:17;;;;;;;40.80;19.55;;;;;;;5.62;59.32;98628.16;128003;1114;22826;-76
2021/03/23 09:42:13;;;;;;;32.07;16.27;;;;;;;5.73;59.57;98623.98;128045;1114;22870;-76
2021/03/23 09:44:56;;;;;;;26.87;11.97;;;;;;;5.82;58.06;98614.61;128005;1113;22882;-76
2021/03/23 09:47:58;;;;;;;34.53;15.03;;;;;;;5.83;58.40;98619.81;128009;1114;22820;-76
2021/03/23 09:50:42;;;;;;;26.70;13.50;;;;;;;5.85;58.89;98619.60;128042;1113;22804;-76
2021/03/23 09:53:28;;;;;;;16.67;7.50;;;;;;;5.82;57.32;98614.61;128027;1113;22924;-76
2021/03/23 09:56:20;;;;;;;18.55;7.20;;;;;;;5.68;58.79;98627.30;128021;1113;22846;-76
2021/03/23 09:59:18;;;;;;;17.05;7.60;;;;;;;5.59;59.23;98623.98;128004;1113;22858;-76
2021/03/23 10:01:56;;;;;;;15.00;6.67;;;;;;;5.46;58.21;98645.61;128021;1114;22934;-76
2021/03/23 10:04:30;;;;;;;11.70;5.23;;;;;;;5.31;58.96;98629.59;128014;1114;22836;-76
2021/03/23 10:07:09;;;;;;;11.30;5.25;;;;;;;5.21;58.67;98623.78;128049;1114;22873;-76
2021/03/23 10:09:45;;;;;;;15.70;6.80;;;;;;;5.15;60.46;98630.81;128026;1113;22842;-76
2021/03/23 10:12:41;;;;;;;10.47;5.63;;;;;;;5.12;60.50;98628.55;128038;1113;22898;-76
2021/03/23 10:15:32;;;;;;;11.85;4.90;;;;;;;5.07;58.29;98623.76;128056;1114;22931;-76
2021/03/23 10:18:28;;;;;;;9.90;5.35;;;;;;;5.08;59.01;98622.73;128019;1114;22868;-76
2021/03/23 10:21:25;;;;;;;14.65;5.45;;;;;;;5.14;61.10;98619.20;127980;1114;22828;-76
2021/03/23 10:23:57;;;;;;;11.70;5.15;;;;;;;5.21;59.76;98619.20;128006;1115;22813;-76
2021/03/23 10:26:40;;;;;;;16.63;5.63;;;;;;;5.24;61.29;98623.34;128003;1115;23673;-76
2021/03/23 10:29:26;;;;;;;13.72;4.10;;;;;;;5.27;59.96;98628.34;128031;1115;22897;-76
2021/03/23 10:32:18;;;;;;;11.63;5.17;;;;;;;5.21;59.61;98627.31;128029;1114;22912;-76
2021/03/23 10:35:06;;;;;;;;;;;;;;;5.16;58.29;98624.39;128057;1113;23647;-76
2021/03/23 10:37:33;;;;;;;12.03;5.20;;;;;;;5.14;60.52;98623.77;128022;1113;21322;-76
2021/03/23 10:40:01;;;;;;;10.40;4.60;;;;;;;5.16;58.42;98621.69;128018;1114;22825;-76
2021/03/23 10:42:31;;;;;;;10.10;5.00;;;;;;;5.21;57.96;98621.91;128018;1114;22813;-76
2021/03/23 10:45:39;;;;;;;7.90;4.83;;;;;;;5.29;58.89;98627.12;128015;1114;22931;-76
2021/03/23 10:48:25;;;;;;;15.77;5.90;;;;;;;5.37;59.01;98617.97;128019;1114;23575;-76
2021/03/23 10:51:19;;;;;;;15.97;5.80;;;;;;;5.43;59.48;98627.11;128042;1113;22852;-76
2021/03/23 10:54:11;;;;;;;10.65;4.10;;;;;;;5.44;59.43;98623.38;128000;1113;22849;-76
2021/03/23 10:57:10;;;;;;;10.37;4.73;;;;;;;5.42;59.49;98614.63;128010;1113;22803;-76
2021/03/23 10:59:37;;;;;;;10.10;4.30;;;;;;;5.41;58.32;98611.11;128005;1114;23655;-76
2021/03/23 11:02:14;;;;;;;11.55;4.75;;;;;;;5.45;59.16;98619.63;127998;1113;22895;-76
2021/03/23 11:05:07;;;;;;;9.57;4.93;;;;;;;5.48;59.05;98617.34;128002;1114;23791;-76
2021/03/23 11:07:51;;;;;;;12.40;4.78;;;;;;;5.49;58.94;98618.19;128009;1114;23016;-78
2021/03/23 11:10:23;;;;;;;10.73;4.80;;;;;;;5.54;59.02;98623.77;128025;1113;22888;-78
2021/03/23 11:12:58;;;;;;;8.37;3.97;;;;;;;5.58;59.14;98633.14;128024;1114;22950;-78
2021/03/23 11:15:31;;;;;;;9.60;5.20;;;;;;;5.71;58.88;98624.19;128007;1113;23290;-76
2021/03/23 11:18:00;;;;;;;8.30;3.75;;;;;;;5.89;59.22;98612.72;128026;1113;22805;-76
2021/03/23 11:20:40;;;;;;;8.53;4.17;;;;;;;6.09;58.57;98618.11;128030;1113;23680;-76
2021/03/23 11:23:43;;;;;;;7.00;3.23;;;;;;;6.21;57.29;98635.34;128030;1113;22769;-76
2021/03/23 11:26:33;;;;;;;7.75;3.70;;;;;;;6.33;57.05;98610.36;128069;1114;23599;-76
2021/03/23 11:29:05;;;;;;;9.15;3.45;;;;;;;6.35;56.79;98613.67;128049;1114;22922;-76
2021/03/23 11:31:38;;;;;;;6.35;3.95;;;;;;;6.37;55.08;98617.81;128055;1113;22888;-76
2021/03/23 11:34:07;;;;;;;9.03;3.10;;;;;;;6.48;55.84;98601.96;128028;1114;22901;-76
2021/03/23 11:36:39;;;;;;;5.90;3.97;;;;;;;6.70;54.06;98603.31;128043;1113;22937;-76
2021/03/23 11:39:12;;;;;;;5.60;2.60;;;;;;;6.86;53.79;98593.03;128029;1115;22970;-76
2021/03/23 11:41:57;;;;;;;7.47;3.63;;;;;;;7.03;53.81;98592.30;128051;1113;23060;-76
2021/03/23 11:44:31;;;;;;;7.33;3.77;;;;;;;7.13;52.70;98582.84;128041;1115;22828;-76
2021/03/23 11:47:15;;;;;;;8.00;3.70;;;;;;;7.24;53.60;98584.84;128037;1113;22897;-76
2021/03/23 11:50:05;;;;;;;6.53;3.47;;;;;;;7.48;54.18;98590.50;127996;1113;22884;-76
2021/03/23 11:52:35;;;;;;;9.75;3.95;;;;;;;7.83;52.38;98593.51;128023;1114;22887;-76
2021/03/23 11:55:15;;;;;;;6.30;3.50;;;;;;;7.92;51.80;98584.02;128009;1113;22865;-76
2021/03/23 11:57:42;;;;;;;7.40;4.00;;;;;;;7.99;51.89;98590.20;128003;1114;22932;-76